Time;durP1;ratioP1;P1;durP2;ratioP2;P2;SDS_P1;SDS_P2;PMS_P1;PMS_P2;Temp;Humidity;BMP_temperature;BMP_pressure;BME280_temperature;BME280_humidity;BME280_pressure;Samples;Min_cycle;Max_cycle;Signal;HPM_P1;HPM_P2
2022/03/13 00:00:11;;;;;;;18.47;13.70;;;;;;;;;;5131924;28;20072;-49
2022/03/13 00:02:37;;;;;;;21.03;14.30;;;;;;;;;;5132821;28;20494;-49
2022/03/13 00:05:04;;;;;;;18.63;13.53;;;;;;;;;;5119834;28;20027;-49
2022/03/13 00:07:31;;;;;;;24.70;14.10;;;;;;;;;;5130313;28;20027;-51
2022/03/13 00:09:57;;;;;;;26.20;13.57;;;;;;;;;;5126940;28;20015;-51
2022/03/13 00:12:32;;;;;;;22.57;14.47;;;;;;;;;;5132447;28;20487;-51
2022/03/13 00:15:01;;;;;;;20.37;13.53;;;;;;;;;;5131385;28;20034;-48
2022/03/13 00:17:30;;;;;;;22.13;14.37;;;;;;;;;;5118064;28;20019;-49
2022/03/13 00:20:00;;;;;;;20.13;13.90;;;;;;;;;;5131498;28;20034;-51
2022/03/13 00:22:30;;;;;;;20.30;13.47;;;;;;;;;;5124476;28;20014;-52
2022/03/13 00:24:57;;;;;;;18.90;13.13;;;;;;;;;;5131709;28;20035;-52
2022/03/13 00:27:23;;;;;;;22.57;13.57;;;;;;;;;;5132662;28;20026;-52
2022/03/13 00:29:49;;;;;;;20.67;13.27;;;;;;;;;;5131632;28;20070;-52
2022/03/13 00:32:15;;;;;;;22.90;13.50;;;;;;;;;;5132336;28;20407;-51
2022/03/13 00:34:41;;;;;;;21.53;13.73;;;;;;;;;;5131496;27;20035;-51
2022/03/13 00:37:07;;;;;;;20.40;13.23;;;;;;;;;;5136466;27;20030;-53
2022/03/13 00:39:34;;;;;;;20.10;12.63;;;;;;;;;;5134962;27;20054;-54
2022/03/13 00:42:00;;;;;;;22.90;13.80;;;;;;;;;;5136519;27;20094;-52
2022/03/13 00:44:26;;;;;;;19.73;14.03;;;;;;;;;;5141441;27;20027;-50
2022/03/13 00:46:52;;;;;;;19.87;12.83;;;;;;;;;;5139567;27;20529;-49
2022/03/13 00:49:18;;;;;;;17.80;13.83;;;;;;;;;;5134568;27;20027;-49
2022/03/13 00:51:44;;;;;;;20.00;13.80;;;;;;;;;;5117775;27;20471;-51
2022/03/13 00:54:10;;;;;;;20.53;14.17;;;;;;;;;;5134905;27;20066;-52
2022/03/13 00:56:36;;;;;;;21.23;13.23;;;;;;;;;;5136459;27;20102;-49
2022/03/13 00:59:02;;;;;;;22.73;14.40;;;;;;;;;;5129880;27;20397;-51
2022/03/13 01:01:28;;;;;;;20.10;13.40;;;;;;;;;;5134184;27;20019;-53
2022/03/13 01:03:54;;;;;;;20.90;13.43;;;;;;;;;;5130941;27;20108;-49
2022/03/13 01:06:21;;;;;;;20.23;14.37;;;;;;;;;;5135982;27;20023;-49
2022/03/13 01:08:48;;;;;;;18.73;12.77;;;;;;;;;;5134818;27;20023;-48
2022/03/13 01:11:16;;;;;;;18.47;12.17;;;;;;;;;;5132597;27;20102;-49
2022/03/13 01:13:42;;;;;;;19.67;13.00;;;;;;;;;;5134301;27;20064;-54
2022/03/13 01:16:11;;;;;;;18.50;13.10;;;;;;;;;;5117164;27;20395;-50
2022/03/13 01:18:55;;;;;;;17.20;12.37;;;;;;;;;;5134239;27;20019;-48
2022/03/13 01:21:21;;;;;;;20.23;12.93;;;;;;;;;;5134832;27;20034;-50
2022/03/13 01:24:13;;;;;;;18.93;13.37;;;;;;;;;;5111539;28;20028;-51
2022/03/13 01:26:40;;;;;;;18.80;12.60;;;;;;;;;;5126943;27;20387;-49
2022/03/13 01:29:10;;;;;;;16.77;12.40;;;;;;;;;;5134003;27;20031;-48
2022/03/13 01:31:37;;;;;;;17.13;12.30;;;;;;;;;;5104900;27;20379;-53
2022/03/13 01:34:05;;;;;;;26.57;14.60;;;;;;;;;;5126836;27;20027;-48
2022/03/13 01:36:31;;;;;;;23.03;13.97;;;;;;;;;;5107950;27;20031;-48
2022/03/13 01:38:58;;;;;;;18.60;12.73;;;;;;;;;;5127936;27;20015;-49
2022/03/13 01:41:25;;;;;;;18.90;13.37;;;;;;;;;;5134572;27;20414;-50
2022/03/13 01:43:51;;;;;;;21.70;13.33;;;;;;;;;;5133950;27;20011;-50
2022/03/13 01:46:17;;;;;;;17.37;13.63;;;;;;;;;;5124108;27;20519;-51
2022/03/13 01:48:54;;;;;;;18.87;13.27;;;;;;;;;;5128057;27;20472;-48
2022/03/13 01:51:20;;;;;;;21.07;13.80;;;;;;;;;;5134774;27;20072;-48
2022/03/13 01:53:46;;;;;;;19.93;13.50;;;;;;;;;;5133754;27;20035;-48
2022/03/13 01:56:13;;;;;;;19.77;12.23;;;;;;;;;;5135064;27;20023;-54
2022/03/13 01:58:38;;;;;;;24.30;14.40;;;;;;;;;;5131127;27;20148;-49
2022/03/13 02:01:05;;;;;;;20.13;13.87;;;;;;;;;;5131855;27;20047;-49
2022/03/13 02:03:30;;;;;;;20.60;13.63;;;;;;;;;;5133028;27;20046;-48
2022/03/13 02:05:57;;;;;;;19.40;12.97;;;;;;;;;;5133725;27;20057;-50
2022/03/13 02:08:24;;;;;;;18.70;12.90;;;;;;;;;;5133692;27;20035;-49
2022/03/13 02:10:50;;;;;;;17.47;12.97;;;;;;;;;;5134669;27;20084;-54
2022/03/13 02:13:18;;;;;;;17.00;13.10;;;;;;;;;;5134101;27;20070;-48
2022/03/13 02:15:45;;;;;;;21.53;13.60;;;;;;;;;;5119738;27;20433;-48
2022/03/13 02:18:11;;;;;;;21.10;12.57;;;;;;;;;;5133654;27;20059;-48
2022/03/13 02:20:41;;;;;;;16.47;11.97;;;;;;;;;;5127723;27;20114;-48
2022/03/13 02:23:14;;;;;;;18.67;11.80;;;;;;;;;;5130514;27;20015;-53
2022/03/13 02:25:40;;;;;;;18.50;12.40;;;;;;;;;;5132432;27;20034;-49
2022/03/13 02:28:06;;;;;;;19.00;12.77;;;;;;;;;;5121969;27;20024;-49
2022/03/13 02:30:34;;;;;;;22.40;12.00;;;;;;;;;;5131810;27;20027;-48
2022/03/13 02:33:00;;;;;;;19.83;12.57;;;;;;;;;;5132953;27;20026;-47
2022/03/13 02:35:29;;;;;;;16.70;12.17;;;;;;;;;;5130849;27;20031;-49
2022/03/13 02:37:55;;;;;;;18.30;12.30;;;;;;;;;;5128168;27;20026;-49
2022/03/13 02:40:23;;;;;;;18.63;12.03;;;;;;;;;;5108035;27;20379;-49
2022/03/13 02:42:49;;;;;;;16.00;12.13;;;;;;;;;;5132344;27;20483;-48
2022/03/13 02:45:29;;;;;;;16.27;11.10;;;;;;;;;;5131261;27;20088;-53
2022/03/13 02:47:55;;;;;;;16.53;12.20;;;;;;;;;;5114289;27;20023;-52
2022/03/13 02:50:22;;;;;;;14.03;11.27;;;;;;;;;;5131947;27;20041;-51
2022/03/13 02:52:48;;;;;;;15.27;11.50;;;;;;;;;;5127715;27;20090;-53
2022/03/13 02:55:14;;;;;;;18.60;11.00;;;;;;;;;;5131522;27;20047;-51
2022/03/13 02:57:40;;;;;;;17.70;12.27;;;;;;;;;;5132232;27;20428;-53
2022/03/13 03:00:08;;;;;;;16.30;11.37;;;;;;;;;;5131482;27;20019;-54
2022/03/13 03:02:34;;;;;;;17.93;11.77;;;;;;;;;;5131692;27;20055;-52
2022/03/13 03:05:04;;;;;;;17.70;11.77;;;;;;;;;;5131598;27;20060;-54
2022/03/13 03:07:30;;;;;;;17.27;11.20;;;;;;;;;;5119638;27;20019;-50
2022/03/13 03:09:56;;;;;;;19.23;12.10;;;;;;;;;;5131129;27;20027;-50
2022/03/13 03:12:22;;;;;;;18.33;11.53;;;;;;;;;;5123450;27;20130;-54
2022/03/13 03:14:48;;;;;;;19.47;11.80;;;;;;;;;;5131473;27;20114;-53
2022/03/13 03:17:15;;;;;;;16.83;10.57;;;;;;;;;;5110383;27;20360;-50
2022/03/13 03:19:41;;;;;;;19.83;12.20;;;;;;;;;;5121364;27;20028;-50
2022/03/13 03:22:07;;;;;;;19.90;11.87;;;;;;;;;;5131501;27;20030;-50
2022/03/13 03:24:33;;;;;;;15.40;11.23;;;;;;;;;;5123845;27;20028;-51
2022/03/13 03:26:59;;;;;;;15.20;10.20;;;;;;;;;;5129396;27;20027;-55
2022/03/13 03:29:26;;;;;;;17.63;11.53;;;;;;;;;;5131619;27;20019;-53
2022/03/13 03:31:52;;;;;;;17.17;11.50;;;;;;;;;;5133193;27;20023;-53
2022/03/13 03:34:20;;;;;;;17.70;11.53;;;;;;;;;;5131639;27;20039;-52
2022/03/13 03:36:49;;;;;;;15.53;10.73;;;;;;;;;;5133044;27;20046;-52
2022/03/13 03:39:16;;;;;;;16.67;10.93;;;;;;;;;;5131440;27;20031;-49
2022/03/13 03:41:43;;;;;;;16.43;11.27;;;;;;;;;;5132921;27;20019;-52
2022/03/13 03:44:09;;;;;;;17.10;11.30;;;;;;;;;;5133440;27;20031;-54
2022/03/13 03:46:35;;;;;;;17.03;12.13;;;;;;;;;;5133015;27;20023;-53
2022/03/13 03:49:01;;;;;;;16.83;11.13;;;;;;;;;;5130042;27;20017;-50
2022/03/13 03:51:27;;;;;;;17.27;10.77;;;;;;;;;;5131524;27;20077;-53
2022/03/13 03:53:53;;;;;;;15.30;10.83;;;;;;;;;;5131301;28;20468;-49
2022/03/13 03:56:19;;;;;;;15.97;10.70;;;;;;;;;;5114526;28;20034;-50
2022/03/13 03:58:45;;;;;;;15.73;11.07;;;;;;;;;;5131808;28;20027;-50
2022/03/13 04:01:12;;;;;;;15.87;11.90;;;;;;;;;;5130448;28;20035;-51
2022/03/13 04:03:38;;;;;;;16.10;10.40;;;;;;;;;;5131872;28;20102;-53
2022/03/13 04:06:04;;;;;;;15.10;10.77;;;;;;;;;;5131300;28;20069;-54
2022/03/13 04:08:30;;;;;;;17.60;11.47;;;;;;;;;;5132744;27;20031;-48
2022/03/13 04:10:56;;;;;;;13.87;10.70;;;;;;;;;;5135319;27;20027;-48
2022/03/13 04:13:22;;;;;;;17.37;11.53;;;;;;;;;;5136262;27;20484;-49
2022/03/13 04:15:48;;;;;;;16.00;11.63;;;;;;;;;;5127776;27;20448;-52
2022/03/13 04:18:15;;;;;;;17.30;11.27;;;;;;;;;;5133905;27;20111;-52
2022/03/13 04:20:42;;;;;;;17.67;12.33;;;;;;;;;;5134867;27;20026;-50
2022/03/13 04:23:09;;;;;;;17.10;11.40;;;;;;;;;;5136695;27;20023;-50
2022/03/13 04:25:37;;;;;;;13.23;10.97;;;;;;;;;;5135446;27;20020;-50
2022/03/13 04:28:04;;;;;;;17.73;12.47;;;;;;;;;;5136621;27;20023;-48
2022/03/13 04:30:31;;;;;;;15.90;11.23;;;;;;;;;;5134120;27;20037;-50
2022/03/13 04:32:57;;;;;;;19.43;11.87;;;;;;;;;;5132576;27;20074;-49
2022/03/13 04:35:24;;;;;;;18.60;11.80;;;;;;;;;;5113620;27;20031;-51
2022/03/13 04:37:50;;;;;;;18.07;12.40;;;;;;;;;;5136349;27;20016;-48
2022/03/13 04:40:16;;;;;;;16.27;11.40;;;;;;;;;;5135016;27;20027;-49
2022/03/13 04:42:42;;;;;;;14.60;10.27;;;;;;;;;;5136501;27;20023;-48
2022/03/13 04:45:09;;;;;;;21.77;11.93;;;;;;;;;;5132775;27;20057;-48
2022/03/13 04:47:35;;;;;;;15.53;10.77;;;;;;;;;;5127582;27;20027;-47
2022/03/13 04:50:01;;;;;;;16.13;10.83;;;;;;;;;;5135083;27;20549;-52
2022/03/13 04:52:27;;;;;;;20.43;11.63;;;;;;;;;;5136064;27;20026;-49
2022/03/13 04:54:53;;;;;;;18.47;11.90;;;;;;;;;;5133392;27;20031;-48
2022/03/13 04:57:20;;;;;;;17.70;11.67;;;;;;;;;;5135642;27;20027;-52
2022/03/13 04:59:46;;;;;;;19.80;11.50;;;;;;;;;;5134910;27;20367;-48
2022/03/13 05:02:12;;;;;;;17.17;10.97;;;;;;;;;;5135693;27;20015;-49
2022/03/13 05:04:38;;;;;;;17.13;11.37;;;;;;;;;;5135877;27;20043;-49
2022/03/13 05:07:06;;;;;;;15.87;11.13;;;;;;;;;;5134037;27;20027;-51
2022/03/13 05:09:33;;;;;;;16.30;11.23;;;;;;;;;;5135583;27;20015;-50
2022/03/13 05:12:04;;;;;;;17.03;11.40;;;;;;;;;;5133865;27;20039;-52
2022/03/13 05:14:31;;;;;;;18.40;11.57;;;;;;;;;;5127519;27;20027;-52
2022/03/13 05:16:58;;;;;;;20.23;12.17;;;;;;;;;;5134408;27;20020;-55
2022/03/13 05:19:24;;;;;;;17.03;11.17;;;;;;;;;;5120301;27;20050;-52
2022/03/13 05:21:50;;;;;;;12.33;10.37;;;;;;;;;;5134322;27;20102;-52
2022/03/13 05:24:16;;;;;;;14.23;9.97;;;;;;;;;;5135595;27;20023;-54
2022/03/13 05:26:44;;;;;;;15.50;11.07;;;;;;;;;;5134119;27;20019;-53
2022/03/13 05:29:10;;;;;;;19.77;11.40;;;;;;;;;;5135168;27;20019;-51
2022/03/13 05:31:36;;;;;;;15.90;10.70;;;;;;;;;;5134091;27;20012;-54
2022/03/13 05:34:02;;;;;;;16.17;10.67;;;;;;;;;;5135165;27;20208;-48
2022/03/13 05:36:28;;;;;;;13.53;10.00;;;;;;;;;;5133461;27;20019;-51
2022/03/13 05:38:54;;;;;;;17.97;11.23;;;;;;;;;;5135167;27;20063;-51
2022/03/13 05:41:22;;;;;;;14.27;10.70;;;;;;;;;;5133540;27;20063;-51
2022/03/13 05:43:49;;;;;;;16.47;10.57;;;;;;;;;;5135448;27;20030;-53
2022/03/13 05:46:15;;;;;;;16.00;10.80;;;;;;;;;;5133657;27;20015;-48
2022/03/13 05:48:41;;;;;;;18.40;11.03;;;;;;;;;;5134979;27;20448;-49
2022/03/13 05:51:08;;;;;;;17.07;11.17;;;;;;;;;;5133647;27;20061;-48
2022/03/13 05:53:34;;;;;;;17.57;11.00;;;;;;;;;;5134479;27;20046;-48
2022/03/13 05:56:00;;;;;;;14.60;10.80;;;;;;;;;;5133873;27;20019;-51
2022/03/13 05:58:26;;;;;;;15.97;11.13;;;;;;;;;;5134616;27;20142;-51
2022/03/13 06:01:05;;;;;;;16.60;10.60;;;;;;;;;;5133673;27;20025;-48
2022/03/13 06:03:32;;;;;;;14.43;10.37;;;;;;;;;;5133153;27;20023;-48
2022/03/13 06:06:00;;;;;;;15.50;10.53;;;;;;;;;;5123393;27;20027;-50
2022/03/13 06:08:26;;;;;;;15.23;10.27;;;;;;;;;;5134572;27;20463;-48
2022/03/13 06:10:52;;;;;;;15.33;9.93;;;;;;;;;;5133451;27;20027;-49
2022/03/13 06:13:20;;;;;;;15.13;10.73;;;;;;;;;;5134241;27;20114;-51
2022/03/13 06:15:46;;;;;;;12.77;9.47;;;;;;;;;;5121912;27;20039;-50
2022/03/13 06:18:12;;;;;;;17.97;9.40;;;;;;;;;;5134454;27;20025;-49
2022/03/13 06:20:39;;;;;;;16.13;10.00;;;;;;;;;;5133208;27;20027;-54
2022/03/13 06:23:05;;;;;;;15.40;10.60;;;;;;;;;;5134476;27;20114;-54
2022/03/13 06:25:31;;;;;;;17.37;11.40;;;;;;;;;;5131769;27;20181;-53
2022/03/13 06:27:57;;;;;;;16.70;11.27;;;;;;;;;;5134298;27;20529;-52
2022/03/13 06:30:23;;;;;;;15.33;9.67;;;;;;;;;;5133045;27;20023;-54
2022/03/13 06:32:51;;;;;;;17.90;11.03;;;;;;;;;;5115335;27;20061;-49
2022/03/13 06:35:18;;;;;;;16.17;10.67;;;;;;;;;;5112690;27;20125;-54
2022/03/13 06:37:44;;;;;;;13.90;9.37;;;;;;;;;;5125037;27;20068;-51
2022/03/13 06:40:10;;;;;;;17.43;9.87;;;;;;;;;;5132760;27;20112;-53
2022/03/13 06:42:37;;;;;;;13.67;9.70;;;;;;;;;;5137033;27;20015;-53
2022/03/13 06:45:04;;;;;;;13.53;9.80;;;;;;;;;;5132484;27;20015;-49
2022/03/13 06:47:30;;;;;;;18.57;11.50;;;;;;;;;;5133235;27;20369;-48
2022/03/13 06:49:56;;;;;;;16.60;10.30;;;;;;;;;;5132078;27;20019;-54
2022/03/13 06:52:22;;;;;;;15.93;10.57;;;;;;;;;;5124066;27;20050;-48
2022/03/13 06:54:48;;;;;;;15.80;10.60;;;;;;;;;;5132906;27;20038;-54
2022/03/13 06:57:18;;;;;;;14.73;10.33;;;;;;;;;;5131915;27;20023;-53
2022/03/13 06:59:44;;;;;;;16.17;10.17;;;;;;;;;;5115497;27;20029;-52
2022/03/13 07:02:11;;;;;;;16.67;10.10;;;;;;;;;;5131073;27;20471;-50
2022/03/13 07:04:37;;;;;;;12.10;9.33;;;;;;;;;;5132166;27;20062;-50
2022/03/13 07:07:03;;;;;;;12.80;9.47;;;;;;;;;;5132508;27;20031;-49
2022/03/13 07:09:29;;;;;;;12.53;9.57;;;;;;;;;;5133431;27;20395;-49
2022/03/13 07:11:55;;;;;;;11.37;8.50;;;;;;;;;;5132193;27;20043;-51
2022/03/13 07:14:21;;;;;;;11.70;9.57;;;;;;;;;;5133536;27;20039;-49
2022/03/13 07:16:48;;;;;;;16.00;9.77;;;;;;;;;;5130800;27;20084;-49
2022/03/13 07:19:14;;;;;;;14.20;9.33;;;;;;;;;;5131995;27;20027;-51
2022/03/13 07:21:40;;;;;;;14.20;9.57;;;;;;;;;;5132160;27;20111;-56
2022/03/13 07:24:06;;;;;;;14.53;9.67;;;;;;;;;;5133036;27;20023;-50
2022/03/13 07:26:32;;;;;;;15.47;10.20;;;;;;;;;;5132075;27;20110;-47
2022/03/13 07:29:01;;;;;;;13.30;9.23;;;;;;;;;;5129761;27;20071;-49
2022/03/13 07:31:27;;;;;;;13.93;9.30;;;;;;;;;;5121444;27;20130;-51
2022/03/13 07:33:53;;;;;;;12.40;8.80;;;;;;;;;;5132982;27;20058;-49
2022/03/13 07:36:19;;;;;;;15.37;11.20;;;;;;;;;;5132093;27;20027;-50
2022/03/13 07:38:45;;;;;;;16.83;10.03;;;;;;;;;;5133182;27;20030;-52
2022/03/13 07:41:12;;;;;;;14.43;9.43;;;;;;;;;;5131838;27;20038;-50
2022/03/13 07:43:38;;;;;;;13.70;9.07;;;;;;;;;;5132180;27;20023;-51
2022/03/13 07:46:05;;;;;;;14.50;9.37;;;;;;;;;;5131556;27;20188;-49
2022/03/13 07:48:34;;;;;;;15.40;10.20;;;;;;;;;;5132673;27;20027;-49
2022/03/13 07:51:00;;;;;;;12.30;9.17;;;;;;;;;;5131868;27;20027;-51
2022/03/13 07:53:27;;;;;;;12.90;9.73;;;;;;;;;;5132530;27;20022;-48
2022/03/13 07:55:54;;;;;;;14.87;10.47;;;;;;;;;;5130667;27;20436;-48
2022/03/13 07:58:20;;;;;;;16.47;10.53;;;;;;;;;;5128075;28;20073;-49
2022/03/13 08:00:47;;;;;;;14.77;10.67;;;;;;;;;;5127514;28;20042;-49
2022/03/13 08:03:16;;;;;;;16.47;10.17;;;;;;;;;;5132584;28;20012;-49
2022/03/13 08:05:42;;;;;;;12.50;9.50;;;;;;;;;;5129536;28;20564;-52
2022/03/13 08:08:08;;;;;;;12.93;9.30;;;;;;;;;;5114206;28;20016;-49
2022/03/13 08:10:34;;;;;;;16.63;9.87;;;;;;;;;;5131401;28;20110;-52
2022/03/13 08:13:00;;;;;;;15.83;10.60;;;;;;;;;;5132595;28;20071;-49
2022/03/13 08:15:26;;;;;;;17.20;10.60;;;;;;;;;;5120096;27;20100;-49
2022/03/13 08:17:52;;;;;;;17.10;10.23;;;;;;;;;;5132791;28;20019;-49
2022/03/13 08:20:18;;;;;;;12.70;10.33;;;;;;;;;;5113128;28;20019;-51
2022/03/13 08:22:45;;;;;;;13.67;9.33;;;;;;;;;;5109494;28;20448;-51
2022/03/13 08:25:15;;;;;;;13.57;10.00;;;;;;;;;;5132547;28;20047;-50
2022/03/13 08:27:41;;;;;;;13.53;8.93;;;;;;;;;;5131692;28;20027;-50
2022/03/13 08:30:08;;;;;;;13.73;9.27;;;;;;;;;;5132615;28;20517;-49
2022/03/13 08:32:34;;;;;;;11.57;8.80;;;;;;;;;;5130320;28;20134;-49
2022/03/13 08:35:00;;;;;;;13.60;9.17;;;;;;;;;;5132579;28;20042;-50
2022/03/13 08:37:26;;;;;;;10.23;7.77;;;;;;;;;;5130804;28;20027;-51
2022/03/13 08:39:52;;;;;;;12.20;8.57;;;;;;;;;;5132388;28;20159;-55
2022/03/13 08:42:18;;;;;;;14.03;8.27;;;;;;;;;;5130984;28;20059;-49
2022/03/13 08:44:44;;;;;;;13.50;8.23;;;;;;;;;;5132328;28;20391;-50
2022/03/13 08:47:10;;;;;;;11.77;8.47;;;;;;;;;;5131042;28;20027;-50
2022/03/13 08:49:36;;;;;;;12.57;9.13;;;;;;;;;;5114722;28;20031;-48
2022/03/13 08:52:02;;;;;;;15.47;10.03;;;;;;;;;;5124908;28;20068;-53
2022/03/13 08:54:28;;;;;;;10.97;8.67;;;;;;;;;;5132058;28;20043;-51
2022/03/13 08:56:55;;;;;;;13.80;9.67;;;;;;;;;;5122399;27;20115;-51
2022/03/13 08:59:21;;;;;;;14.27;8.47;;;;;;;;;;5134905;27;20031;-53
2022/03/13 09:01:47;;;;;;;12.00;8.47;;;;;;;;;;5134821;27;20034;-52
2022/03/13 09:04:14;;;;;;;12.87;7.60;;;;;;;;;;5135771;27;20019;-50
2022/03/13 09:06:40;;;;;;;14.37;9.10;;;;;;;;;;5134829;27;20019;-53
2022/03/13 09:09:09;;;;;;;12.60;8.93;;;;;;;;;;5135760;27;20318;-50
2022/03/13 09:11:35;;;;;;;10.07;7.87;;;;;;;;;;5134421;27;20047;-50
2022/03/13 09:14:01;;;;;;;10.83;8.40;;;;;;;;;;5135818;27;20039;-52
2022/03/13 09:16:27;;;;;;;12.13;9.27;;;;;;;;;;5132774;27;20027;-49
2022/03/13 09:18:53;;;;;;;10.37;8.23;;;;;;;;;;5131685;27;20490;-53
2022/03/13 09:21:19;;;;;;;9.90;7.70;;;;;;;;;;5133535;27;20019;-49
2022/03/13 09:23:46;;;;;;;12.57;8.73;;;;;;;;;;5135394;27;20026;-49
2022/03/13 09:26:12;;;;;;;11.13;7.73;;;;;;;;;;5134180;27;20034;-51
2022/03/13 09:28:38;;;;;;;10.90;8.33;;;;;;;;;;5116937;27;20118;-50
2022/03/13 09:31:06;;;;;;;9.77;7.20;;;;;;;;;;5124888;27;20072;-48
2022/03/13 09:33:32;;;;;;;11.83;8.70;;;;;;;;;;5135468;27;20023;-50
2022/03/13 09:35:58;;;;;;;10.77;8.20;;;;;;;;;;5133754;27;20041;-52
2022/03/13 09:38:25;;;;;;;8.90;6.80;;;;;;;;;;5126506;27;20011;-52
2022/03/13 09:40:51;;;;;;;11.60;7.60;;;;;;;;;;5115562;27;20027;-52
2022/03/13 09:43:19;;;;;;;10.53;8.43;;;;;;;;;;5141159;27;20071;-47
2022/03/13 09:45:46;;;;;;;11.50;8.93;;;;;;;;;;5135348;27;20019;-48
2022/03/13 09:48:15;;;;;;;10.97;7.90;;;;;;;;;;5133547;27;20017;-52
2022/03/13 09:50:41;;;;;;;11.03;8.23;;;;;;;;;;5134413;27;20020;-51
2022/03/13 09:53:08;;;;;;;14.60;9.50;;;;;;;;;;5132117;27;20551;-49
2022/03/13 09:55:34;;;;;;;12.13;8.23;;;;;;;;;;5135046;27;20372;-50
2022/03/13 09:58:00;;;;;;;11.67;7.70;;;;;;;;;;5133336;27;20301;-53
2022/03/13 10:00:26;;;;;;;10.43;7.87;;;;;;;;;;5116184;27;20364;-51
2022/03/13 10:02:54;;;;;;;9.10;7.30;;;;;;;;;;5133557;27;20072;-53
2022/03/13 10:05:21;;;;;;;10.30;7.77;;;;;;;;;;5132529;27;20122;-53
2022/03/13 10:07:50;;;;;;;10.73;7.50;;;;;;;;;;5132494;27;20015;-49
2022/03/13 10:10:16;;;;;;;10.63;8.03;;;;;;;;;;5115997;27;20065;-49
2022/03/13 10:12:42;;;;;;;11.43;7.67;;;;;;;;;;5133153;27;20047;-50
2022/03/13 10:15:09;;;;;;;14.50;9.10;;;;;;;;;;5132035;27;20043;-52
2022/03/13 10:17:36;;;;;;;11.40;7.93;;;;;;;;;;5128742;27;20067;-55
2022/03/13 10:20:14;;;;;;;12.03;9.20;;;;;;;;;;5134273;27;20017;-52
2022/03/13 10:22:41;;;;;;;13.57;8.63;;;;;;;;;;5130814;27;20023;-54
2022/03/13 10:25:07;;;;;;;11.93;8.73;;;;;;;;;;5131571;27;20495;-50
2022/03/13 10:27:34;;;;;;;12.07;9.07;;;;;;;;;;5132729;27;20027;-55
2022/03/13 10:30:09;;;;;;;10.57;8.37;;;;;;;;;;5115649;27;20344;-49
2022/03/13 10:32:39;;;;;;;11.50;8.57;;;;;;;;;;5122144;27;20042;-48
2022/03/13 10:35:05;;;;;;;15.30;9.20;;;;;;;;;;5130856;27;20074;-50
2022/03/13 10:37:38;;;;;;;12.63;8.87;;;;;;;;;;5132262;27;20110;-49
2022/03/13 10:40:08;;;;;;;12.10;8.43;;;;;;;;;;5133962;27;20072;-50
2022/03/13 10:42:41;;;;;;;12.70;9.03;;;;;;;;;;5127222;27;20023;-49
2022/03/13 10:45:08;;;;;;;11.23;8.70;;;;;;;;;;5133851;27;20030;-53
2022/03/13 10:47:34;;;;;;;12.73;9.30;;;;;;;;;;5127188;27;20113;-48
2022/03/13 10:50:00;;;;;;;11.40;8.87;;;;;;;;;;5134007;27;20038;-50
2022/03/13 10:52:36;;;;;;;11.40;8.57;;;;;;;;;;5132317;27;20487;-53
2022/03/13 10:55:20;;;;;;;12.00;8.63;;;;;;;;;;5133691;27;20122;-48
2022/03/13 10:57:51;;;;;;;15.32;10.05;;;;;;;;;;5132239;27;20468;-52
2022/03/13 11:00:17;;;;;;;12.23;8.60;;;;;;;;;;5133209;27;20026;-51
2022/03/13 11:02:43;;;;;;;12.53;9.50;;;;;;;;;;5126348;27;20056;-52
2022/03/13 11:05:09;;;;;;;16.03;9.73;;;;;;;;;;5128697;27;20144;-51
2022/03/13 11:07:36;;;;;;;13.70;9.43;;;;;;;;;;5132079;27;20054;-48
2022/03/13 11:10:03;;;;;;;14.40;10.23;;;;;;;;;;5130606;27;20023;-50
2022/03/13 11:12:30;;;;;;;12.70;10.10;;;;;;;;;;5129815;27;20503;-49
2022/03/13 11:14:57;;;;;;;14.73;9.57;;;;;;;;;;5132014;27;20027;-49
2022/03/13 11:17:27;;;;;;;11.00;9.00;;;;;;;;;;5131607;27;20039;-51
2022/03/13 11:19:55;;;;;;;15.60;9.47;;;;;;;;;;5132958;27;20075;-49
2022/03/13 11:22:21;;;;;;;12.20;8.80;;;;;;;;;;5132062;27;20110;-54
2022/03/13 11:24:48;;;;;;;10.73;8.80;;;;;;;;;;5133252;27;20058;-47
2022/03/13 11:27:15;;;;;;;12.47;8.77;;;;;;;;;;5113507;27;20468;-52
2022/03/13 11:29:53;;;;;;;12.13;7.90;;;;;;;;;;5133037;27;20015;-50
2022/03/13 11:32:33;;;;;;;9.37;7.27;;;;;;;;;;5131377;27;20034;-49
2022/03/13 11:35:08;;;;;;;12.10;8.00;;;;;;;;;;5129162;27;20031;-52
2022/03/13 11:37:34;;;;;;;9.23;7.50;;;;;;;;;;5122485;27;20578;-51
2022/03/13 11:40:01;;;;;;;9.17;6.90;;;;;;;;;;5131995;27;20015;-50
2022/03/13 11:42:27;;;;;;;12.17;7.27;;;;;;;;;;5130995;27;20039;-48
2022/03/13 11:44:53;;;;;;;11.23;8.40;;;;;;;;;;5132551;27;20358;-48
2022/03/13 11:47:23;;;;;;;10.07;7.50;;;;;;;;;;5130656;27;20027;-51
2022/03/13 11:49:49;;;;;;;12.03;8.60;;;;;;;;;;5132155;27;20145;-54
2022/03/13 11:52:20;;;;;;;9.63;7.57;;;;;;;;;;5126210;27;20070;-50
2022/03/13 11:57:16;;;;;;;8.03;7.23;;;;;;;;;;5131587;27;20061;-50
2022/03/13 12:00:00;;;;;;;7.87;6.93;;;;;;;;;;5132935;28;20050;-49
2022/03/13 12:02:46;;;;;;;13.50;8.17;;;;;;;;;;5108970;28;20114;-49
2022/03/13 12:05:31;;;;;;;9.13;7.33;;;;;;;;;;5118669;28;20031;-48
2022/03/13 12:07:57;;;;;;;11.80;7.63;;;;;;;;;;5111557;28;20042;-49
2022/03/13 12:10:35;;;;;;;11.70;7.97;;;;;;;;;;5132794;28;20038;-51
2022/03/13 12:13:07;;;;;;;12.50;9.03;;;;;;;;;;5131544;28;20429;-51
2022/03/13 12:15:34;;;;;;;9.38;7.22;;;;;;;;;;5118174;28;20035;-50
2022/03/13 12:18:16;;;;;;;10.15;8.00;;;;;;;;;;5131208;28;20023;-50
2022/03/13 12:20:43;;;;;;;10.10;7.93;;;;;;;;;;5126466;28;20020;-52
2022/03/13 12:23:09;;;;;;;8.73;7.82;;;;;;;;;;5118553;28;20034;-48
2022/03/13 12:25:36;;;;;;;10.33;7.73;;;;;;;;;;5132381;28;20015;-48
2022/03/13 12:28:02;;;;;;;11.32;7.63;;;;;;;;;;5131342;28;20019;-52
2022/03/13 12:30:29;;;;;;;12.88;8.25;;;;;;;;;;5133679;27;20046;-49
2022/03/13 12:33:02;;;;;;;10.82;7.85;;;;;;;;;;5128050;27;20476;-48
2022/03/13 12:35:28;;;;;;;9.43;8.43;;;;;;;;;;5133029;27;20035;-53
2022/03/13 12:38:01;;;;;;;11.27;7.85;;;;;;;;;;5126599;27;20027;-53
2022/03/13 12:40:28;;;;;;;12.63;9.20;;;;;;;;;;5136347;27;20027;-54
2022/03/13 12:42:55;;;;;;;14.63;9.70;;;;;;;;;;5138950;27;20255;-53
2022/03/13 12:45:22;;;;;;;15.13;11.13;;;;;;;;;;5143994;27;20023;-54
2022/03/13 12:47:49;;;;;;;11.38;8.60;;;;;;;;;;5134975;27;20532;-53
2022/03/13 12:50:17;;;;;;;10.15;7.45;;;;;;;;;;5136117;27;20038;-53
2022/03/13 12:52:44;;;;;;;10.27;7.40;;;;;;;;;;5130274;27;20106;-53
2022/03/13 12:55:11;;;;;;;11.60;8.40;;;;;;;;;;5133402;27;20061;-49
2022/03/13 12:57:38;;;;;;;11.25;8.63;;;;;;;;;;5113268;28;20027;-52
2022/03/13 13:00:09;;;;;;;10.70;6.93;;;;;;;;;;5126995;27;20027;-48
2022/03/13 13:02:36;;;;;;;11.38;8.23;;;;;;;;;;5134685;27;20026;-48
2022/03/13 13:05:06;;;;;;;10.63;8.75;;;;;;;;;;5133122;27;20039;-48
2022/03/13 13:07:34;;;;;;;8.52;7.43;;;;;;;;;;5125515;27;20482;-48
2022/03/13 13:10:01;;;;;;;10.52;8.05;;;;;;;;;;5135713;27;20030;-49
2022/03/13 13:12:30;;;;;;;11.82;7.85;;;;;;;;;;5134103;27;20067;-47
2022/03/13 13:14:56;;;;;;;10.63;8.68;;;;;;;;;;5135471;27;20391;-48
2022/03/13 13:17:25;;;;;;;9.45;8.25;;;;;;;;;;5105864;27;20019;-49
2022/03/13 13:19:53;;;;;;;9.73;8.45;;;;;;;;;;5104847;27;20031;-54
2022/03/13 13:22:27;;;;;;;12.90;8.95;;;;;;;;;;5134829;27;20019;-51
2022/03/13 13:24:55;;;;;;;10.95;8.43;;;;;;;;;;5122246;27;20409;-50
2022/03/13 13:27:28;;;;;;;9.27;8.30;;;;;;;;;;5132687;27;20031;-50
2022/03/13 13:29:54;;;;;;;12.00;8.35;;;;;;;;;;5134187;27;20027;-51
2022/03/13 13:32:20;;;;;;;9.73;8.50;;;;;;;;;;5135510;27;20015;-53
2022/03/13 13:35:01;;;;;;;12.27;8.35;;;;;;;;;;5113368;27;20039;-51
2022/03/13 13:37:27;;;;;;;10.43;8.48;;;;;;;;;;5125657;27;20113;-55
2022/03/13 13:40:12;;;;;;;11.50;8.30;;;;;;;;;;5134402;27;20020;-52
2022/03/13 13:42:39;;;;;;;11.35;8.48;;;;;;;;;;5134069;27;20019;-53
2022/03/13 13:45:26;;;;;;;10.15;7.93;;;;;;;;;;5135040;27;20027;-54
2022/03/13 13:47:52;;;;;;;9.23;8.32;;;;;;;;;;5117633;27;20556;-51
2022/03/13 13:50:22;;;;;;;9.10;7.32;;;;;;;;;;5116541;27;20015;-52
2022/03/13 13:53:01;;;;;;;9.45;7.30;;;;;;;;;;5132202;27;20109;-54
2022/03/13 13:55:28;;;;;;;10.27;7.93;;;;;;;;;;5123487;27;20460;-52
2022/03/13 13:58:13;;;;;;;11.82;8.93;;;;;;;;;;5115294;27;20321;-55
2022/03/13 14:00:39;;;;;;;10.55;7.95;;;;;;;;;;5134707;27;20023;-48
2022/03/13 14:03:05;;;;;;;9.93;8.27;;;;;;;;;;5112376;27;20032;-53
2022/03/13 14:05:34;;;;;;;11.18;8.75;;;;;;;;;;5115190;27;20023;-51
2022/03/13 14:08:00;;;;;;;12.63;9.02;;;;;;;;;;5131277;27;20034;-54
2022/03/13 14:10:26;;;;;;;12.68;8.65;;;;;;;;;;5131407;27;20471;-51
2022/03/13 14:12:53;;;;;;;10.70;9.10;;;;;;;;;;5133331;27;20046;-49
2022/03/13 14:15:20;;;;;;;10.27;7.72;;;;;;;;;;5128925;27;20066;-50
2022/03/13 14:17:46;;;;;;;11.52;8.65;;;;;;;;;;5121375;27;20586;-49
2022/03/13 14:20:13;;;;;;;12.27;8.52;;;;;;;;;;5124140;27;20101;-48
2022/03/13 14:22:41;;;;;;;10.70;8.88;;;;;;;;;;5108526;27;20038;-48
2022/03/13 14:25:07;;;;;;;11.95;8.38;;;;;;;;;;5124237;27;20468;-51
2022/03/13 14:27:34;;;;;;;11.75;8.75;;;;;;;;;;5122703;27;20069;-51